Flight Track Log - Related Links

Times and Time Zones

All times are in EDT time to prevent confusion due to time zone crossing. See the N441R flight status page for this flight to view local times or setup timezone preferences in your user account.

Time Position Orientation Groundspeed Altitude Reporting Facility
EDT Latitude Longitude Course Direction KTS MPH feet Rate Location/Type
Sun 12:40:33 PM 32.7961 -80.0433 354° North 169 194 4,900  Level Jacksonville Center
Sun 12:41:33 PM 32.8464 -80.0492 354° North 180 207 7,100 2,100 Climbing Jacksonville Center
Sun 12:42:33 PM 32.9006 -80.0450 North 180 207 9,100 1,850 Climbing Jacksonville Center
Sun 12:43:33 PM 32.9589 -80.0331 10° North 187 215 10,800 1,800 Climbing Jacksonville Center
Sun 12:44:33 PM 33.0214 -80.0261 North 206 237 12,700 1,950 Climbing Jacksonville Center
Sun 12:45:33 PM 33.0817 -80.0194 North 212 244 14,700 2,000 Climbing Jacksonville Center
Sun 12:46:33 PM 33.1419 -80.0100 North 218 251 16,700 1,550 Climbing Jacksonville Center
Sun 12:47:33 PM 33.2044 -80.0031 North 218 251 17,800 650 Climbing Jacksonville Center
Sun 12:48:33 PM 33.2772 -79.9956 North 234 269 18,000 100 Climbing Jacksonville Center
Sun 12:49:33 PM 33.3542 -79.9856 North 256 295 18,000  Level Jacksonville Center
Sun 12:50:33 PM 33.4292 -79.9758 North 282 325 18,000  Level Jacksonville Center
Sun 12:51:33 PM 33.5247 -79.9625 North 289 333 18,000 -50 Level Jacksonville Center
Sun 12:52:33 PM 33.6039 -79.9550 North 289 333 17,900 -250 Descending Jacksonville Center
Sun 12:53:33 PM 33.6892 -79.9422 North 289 333 17,500 -450 Descending Jacksonville Center
Sun 12:54:33 PM 33.7725 -79.9344 North 289 333 17,000 -500 Descending Jacksonville Center
Sun 12:55:33 PM 33.8556 -79.9217 North 289 333 16,500 -500 Descending Jacksonville Center
Sun 12:56:33 PM 33.9431 -79.9111 North 294 338 16,000 -500 Descending Jacksonville Center
Sun 12:57:33 PM 34.0261 -79.8983 North 294 338 15,500 -650 Descending Jacksonville Center
Sun 12:58:33 PM 34.1081 -79.9181 349° North 294 338 14,700 -800 Descending Jacksonville Center
Sun 12:59:33 PM 34.1822 -79.9683 331° Northwest 289 333 13,900 -800 Descending Jacksonville Center
Sun 01:00:33 PM 34.2564 -80.0136 333° Northwest 294 338 13,100 -900 Descending Jacksonville Center
Sun 01:01:33 PM 34.3283 -80.0614 331° Northwest 294 338 12,100 -1,250 Descending Jacksonville Center
Sun 01:02:33 PM 34.4003 -80.1094 331° Northwest 299 344 10,600 -1,050 Descending Jacksonville Center
Sun 01:03:33 PM 34.4681 -80.1550 331° Northwest 292 336 10,000 -229 Descending Jacksonville Center
Sun 01:05:10 PM 34.5697 -80.2247 331° Northwest 268 308 10,000  Level Atlanta Center
Sun 01:06:23 PM 34.6528 -80.2764 333° Northwest 267 307 10,000  Level Atlanta Center
Sun 01:07:24 PM 34.7008 -80.3425 311° West 262 302 10,000 52 Level Atlanta Center
Sun 01:08:19 PM 34.7483 -80.4011 315° West 265 305 10,100  Climbing Atlanta Center
Sun 01:09:20 PM 34.8025 -80.4694 314° West 267 307 10,000 -234 Descending Atlanta Center
Sun 01:10:27 PM 34.8589 -80.5406 314° West 269 310 9,600 -393 Descending Atlanta Center
Sun 01:11:22 PM 34.9106 -80.6017 316° Northwest 274 315 9,200 -197 Descending Atlanta Center
Sun 01:13:00 PM 34.9916 -80.6999 313° West  Level FlightAware Approximate
Sun 01:13:30 PM 35.0186 -80.7367 313° West 252 290 9,000  Level Atlanta Center
Sun 01:14:31 PM 35.0703 -80.7931 318° Northwest 257 296 9,000  Level Atlanta Center
Sun 01:15:32 PM 35.1433 -80.7903 North 273 314 9,000 -689 Level Atlanta Center
Sun 01:16:33 PM 35.2250 -80.8022 353° North 279 321 7,600 -1,721 Descending Atlanta Center
Sun 01:17:34 PM 35.2964 -80.8172 350° North 255 293 5,500 -1,475 Descending Atlanta Center
Sun 01:18:35 PM 35.3572 -80.8353 346° North 214 246 4,600 -738 Descending Atlanta Center
Sun 01:19:36 PM 35.4158 -80.8456 352° North 215 247 4,000 -256 Descending Atlanta Center
Sun 01:20:32 PM 35.4747 -80.8611 348° North 224 258 4,100  Climbing Atlanta Center
Sun 01:21:33 PM 35.5336 -80.8794 346° North 214 246 4,000 -49 Descending Atlanta Center
Sun 01:22:34 PM 35.5269 -80.9408 262° West 173 199 4,000 47 Level Atlanta Center
Sun 01:23:41 PM 35.4689 -80.9583 194° South 176 203 4,100  Climbing Atlanta Center
Sun 01:24:42 PM 35.4167 -80.9528 175° South 190 219 4,000 -195 Descending Atlanta Center
Sun 01:25:44 PM 35.3664 -80.9494 177° South 186 214 3,700 -672 Descending Atlanta Center
Sun 01:26:38 PM 35.3164 -80.9461 177° South 194 223 2,700 -1,033 Descending Atlanta Center
Sun 01:27:46 PM 35.2578 -80.9433 178° South 181 208 1,600 -971 Descending Atlanta Center

Login

Don't have an account? Register now (free) for customized features, flight alerts, and more!